Los Angeles, CA (90009)

11:28 AM PST on February 09, 2016 (GMT -0800)
Los Angeles International | | Change Station
CLOSE
Current Station
Airport
Location: Los Angeles,
Elevation: 105 ft
Nearby Weather Stations

Elev 105 ft 33.94 °N, 118.39 °W | Updated 35 minutes ago

Partly Cloudy
Partly Cloudy
84 °F
Feels Like 84 °F
N
4
Wind Variable Wind from NNE

Today
High -- | Low -- °F
--% Chance of Precip.
Yesterday
High -- | Low -- °F
Precip. -- in
Pressure 30.15 in
Visibility 10.0 miles
Clouds Few 25000 ft
Dew Point 26 °F
Humidity 12%
Rainfall 0.00 in
Snow Depth Not available.
6:44 AM 5:31 PM
New Moon, 2% visible
METAR KLAX 091853Z 03003KT 10SM FEW250 29/M03 A3015 RMK AO2 SLP208 T02891033
Pressure 30.15 in
Visibility 10.0 miles
Clouds Few 25000 ft
Dew Point 26 °F
Humidity 12%
Rainfall 0.00 in
Snow Depth Not available.
6:44 AM 5:31 PM
New Moon, 2% visible
METAR KLAX 091853Z 03003KT 10SM FEW250 29/M03 A3015 RMK AO2 SLP208 T02891033

10-Day Weather Forecast

Almanac

Astronomy

Feb. 09, 2016 Rise Set
Actual Time
Civil Twilight
Nautical Twilight
Astronomical Twilight
Moon
Length of Visible Light
Length of Day
Tomorrow will be .
, % of the Moon is Illuminated

Today's Extremes

State Highs State Lows

Community

WunderPhotos

Upload Photos

1,891,668 photos uploaded!

WunderBlog® & News

Nearby

Air Quality

  Air Quality AQ Index Pollutant
Not available.

Snow Depth

Station Depth Elevation

Earthquake Activity

City Distance Mag. Time & Date
Minimum magnitude displayed is 2.5.

Coastal Water Temperatures

Place Temperature

Stations

Nearby Weather Stations

Station Location Temp. Windchill Dew Point Humidity Wind Precip. Elev Updated Type
                   

Watches & Warnings

There are currently no watches in effect.